TimeCST,TemperatureF,Dew PointF,Humidity,Sea Level PressureIn,VisibilityMPH,Wind Direction,Wind SpeedMPH,Gust SpeedMPH,PrecipitationIn,Events,Conditions,WindDirDegrees,DateUTC
12:52 AM,46.0,27.0,47,30.22,10.0,West,11.5,-,N/A,,Clear,280,2013-02-03 06:52:00
1:52 AM,43.0,27.0,53,30.24,10.0,WNW,6.9,-,N/A,,Clear,300,2013-02-03 07:52:00
2:52 AM,41.0,26.1,55,30.25,10.0,WNW,6.9,-,N/A,,Clear,290,2013-02-03 08:52:00
3:52 AM,39.0,26.1,60,30.25,10.0,NW,5.8,-,N/A,,Clear,320,2013-02-03 09:52:00
4:52 AM,37.9,26.1,62,30.27,10.0,NW,6.9,-,N/A,,Clear,310,2013-02-03 10:52:00
5:52 AM,36.0,25.0,64,30.28,10.0,North,9.2,-,N/A,,Clear,360,2013-02-03 11:52:00
6:52 AM,35.1,25.0,67,30.30,10.0,WNW,3.5,-,N/A,,Clear,290,2013-02-03 12:52:00
7:52 AM,35.1,26.1,70,30.32,10.0,North,4.6,-,N/A,,Clear,360,2013-02-03 13:52:00
8:52 AM,39.9,27.0,60,30.32,10.0,North,5.8,-,N/A,,Clear,350,2013-02-03 14:52:00
9:52 AM,43.0,28.0,56,30.32,10.0,NNE,8.1,-,N/A,,Clear,20,2013-02-03 15:52:00
10:52 AM,46.0,26.1,46,30.31,10.0,NE,8.1,-,N/A,,Clear,50,2013-02-03 16:52:00
11:52 AM,46.9,25.0,42,30.28,10.0,Variable,5.8,-,N/A,,Clear,0,2013-02-03 17:52:00
12:52 PM,50.0,25.0,38,30.24,10.0,ESE,6.9,-,N/A,,Clear,120,2013-02-03 18:52:00
1:52 PM,53.1,21.9,30,30.19,10.0,South,11.5,-,N/A,,Clear,180,2013-02-03 19:52:00
2:52 PM,55.0,25.0,31,30.14,10.0,SSE,12.7,-,N/A,,Clear,160,2013-02-03 20:52:00
3:52 PM,54.0,25.0,33,30.11,10.0,SSE,12.7,-,N/A,,Clear,160,2013-02-03 21:52:00
4:52 PM,54.0,25.0,33,30.09,10.0,South,10.4,-,N/A,,Clear,170,2013-02-03 22:52:00
5:52 PM,48.0,25.0,41,30.07,10.0,South,6.9,-,N/A,,Clear,170,2013-02-03 23:52:00
6:52 PM,46.0,26.1,46,30.05,10.0,South,9.2,-,N/A,,Clear,180,2013-02-04 00:52:00
7:52 PM,45.0,27.0,49,30.03,10.0,SSE,5.8,-,N/A,,Clear,160,2013-02-04 01:52:00
8:52 PM,46.0,27.0,47,30.00,10.0,SSE,8.1,-,N/A,,Clear,160,2013-02-04 02:52:00
9:52 PM,45.0,28.0,52,29.97,10.0,SSE,6.9,-,N/A,,Clear,160,2013-02-04 03:52:00
10:52 PM,44.1,28.9,55,29.96,10.0,SE,5.8,-,N/A,,Clear,140,2013-02-04 04:52:00
11:52 PM,46.0,28.9,51,29.93,10.0,SSE,6.9,-,N/A,,Clear,160,2013-02-04 05:52:00